sensor_id;sensor_type;location;lat;lon;timestamp;temperature;humidity
6256;DHT22;3161;48.794;9.784;2023-03-21T00:01:00;9.90;99.90
6256;DHT22;3161;48.794;9.784;2023-03-21T00:03:32;9.90;99.90
6256;DHT22;3161;48.794;9.784;2023-03-21T00:06:08;9.90;99.90
6256;DHT22;3161;48.794;9.784;2023-03-21T00:08:37;9.90;99.90
6256;DHT22;3161;48.794;9.784;2023-03-21T00:11:06;9.90;99.90
6256;DHT22;3161;48.794;9.784;2023-03-21T00:13:34;9.80;99.90
6256;DHT22;3161;48.794;9.784;2023-03-21T00:18:39;9.80;99.90
6256;DHT22;3161;48.794;9.784;2023-03-21T00:21:09;9.80;99.90
6256;DHT22;3161;48.794;9.784;2023-03-21T00:23:36;9.80;99.90
6256;DHT22;3161;48.794;9.784;2023-03-21T00:26:04;9.80;99.90
6256;DHT22;3161;48.794;9.784;2023-03-21T00:28:32;9.70;99.90
6256;DHT22;3161;48.794;9.784;2023-03-21T00:31:00;9.70;99.90
6256;DHT22;3161;48.794;9.784;2023-03-21T00:33:28;9.70;99.90
6256;DHT22;3161;48.794;9.784;2023-03-21T00:35:55;9.70;99.90
6256;DHT22;3161;48.794;9.784;2023-03-21T00:38:23;9.60;99.90
6256;DHT22;3161;48.794;9.784;2023-03-21T00:40:51;9.60;99.90
6256;DHT22;3161;48.794;9.784;2023-03-21T00:43:19;9.50;99.90
6256;DHT22;3161;48.794;9.784;2023-03-21T00:45:50;9.50;99.90
6256;DHT22;3161;48.794;9.784;2023-03-21T00:48:18;9.50;99.90
6256;DHT22;3161;48.794;9.784;2023-03-21T00:50:46;9.50;99.90
6256;DHT22;3161;48.794;9.784;2023-03-21T00:53:14;9.40;99.90
6256;DHT22;3161;48.794;9.784;2023-03-21T00:55:42;9.30;99.90
6256;DHT22;3161;48.794;9.784;2023-03-21T00:58:09;9.30;99.90
6256;DHT22;3161;48.794;9.784;2023-03-21T01:00:38;9.30;99.90
6256;DHT22;3161;48.794;9.784;2023-03-21T01:03:08;9.30;99.90
6256;DHT22;3161;48.794;9.784;2023-03-21T01:05:41;9.30;99.90
6256;DHT22;3161;48.794;9.784;2023-03-21T01:08:27;9.30;99.90
6256;DHT22;3161;48.794;9.784;2023-03-21T01:10:56;9.30;99.90
6256;DHT22;3161;48.794;9.784;2023-03-21T01:13:25;9.30;99.90
6256;DHT22;3161;48.794;9.784;2023-03-21T01:15:54;9.30;99.90
6256;DHT22;3161;48.794;9.784;2023-03-21T01:18:25;9.30;99.90
6256;DHT22;3161;48.794;9.784;2023-03-21T01:20:55;9.30;99.90
6256;DHT22;3161;48.794;9.784;2023-03-21T01:23:23;9.30;99.90
6256;DHT22;3161;48.794;9.784;2023-03-21T01:25:53;9.30;99.90
6256;DHT22;3161;48.794;9.784;2023-03-21T01:28:23;9.30;99.90
6256;DHT22;3161;48.794;9.784;2023-03-21T01:30:51;9.30;99.90
6256;DHT22;3161;48.794;9.784;2023-03-21T01:33:20;9.30;99.90
6256;DHT22;3161;48.794;9.784;2023-03-21T01:35:48;9.30;99.90
6256;DHT22;3161;48.794;9.784;2023-03-21T01:38:16;9.30;99.90
6256;DHT22;3161;48.794;9.784;2023-03-21T01:40:46;9.30;99.90
6256;DHT22;3161;48.794;9.784;2023-03-21T01:43:23;9.30;99.90
6256;DHT22;3161;48.794;9.784;2023-03-21T01:46:19;9.30;99.90
6256;DHT22;3161;48.794;9.784;2023-03-21T01:48:56;9.30;99.90
6256;DHT22;3161;48.794;9.784;2023-03-21T01:51:21;9.30;99.90
6256;DHT22;3161;48.794;9.784;2023-03-21T01:53:49;9.30;99.90
6256;DHT22;3161;48.794;9.784;2023-03-21T01:56:33;9.30;99.90
6256;DHT22;3161;48.794;9.784;2023-03-21T01:59:04;9.30;99.90
6256;DHT22;3161;48.794;9.784;2023-03-21T02:01:30;9.30;99.90
6256;DHT22;3161;48.794;9.784;2023-03-21T02:04:00;9.30;99.90
6256;DHT22;3161;48.794;9.784;2023-03-21T02:06:48;9.20;99.90
6256;DHT22;3161;48.794;9.784;2023-03-21T02:09:17;9.20;99.90
6256;DHT22;3161;48.794;9.784;2023-03-21T02:11:46;9.20;99.90
6256;DHT22;3161;48.794;9.784;2023-03-21T02:14:15;9.20;99.90
6256;DHT22;3161;48.794;9.784;2023-03-21T02:20:08;9.20;99.90
6256;DHT22;3161;48.794;9.784;2023-03-21T02:23:07;9.20;99.90
6256;DHT22;3161;48.794;9.784;2023-03-21T02:31:21;9.20;99.90
6256;DHT22;3161;48.794;9.784;2023-03-21T02:36:59;9.20;99.90
6256;DHT22;3161;48.794;9.784;2023-03-21T02:40:15;9.20;99.90
6256;DHT22;3161;48.794;9.784;2023-03-21T02:42:08;9.20;99.90
6256;DHT22;3161;48.794;9.784;2023-03-21T02:44:41;9.20;99.90
6256;DHT22;3161;48.794;9.784;2023-03-21T02:47:32;9.20;99.90
6256;DHT22;3161;48.794;9.784;2023-03-21T02:50:15;9.20;99.90
6256;DHT22;3161;48.794;9.784;2023-03-21T02:52:44;9.20;99.90
6256;DHT22;3161;48.794;9.784;2023-03-21T02:55:23;9.20;99.90
6256;DHT22;3161;48.794;9.784;2023-03-21T02:57:48;9.20;99.90
6256;DHT22;3161;48.794;9.784;2023-03-21T03:00:19;9.20;99.90
6256;DHT22;3161;48.794;9.784;2023-03-21T03:02:47;9.20;99.90
6256;DHT22;3161;48.794;9.784;2023-03-21T03:05:22;9.20;99.90
6256;DHT22;3161;48.794;9.784;2023-03-21T03:15:59;9.20;99.90
6256;DHT22;3161;48.794;9.784;2023-03-21T03:18:28;9.20;99.90
6256;DHT22;3161;48.794;9.784;2023-03-21T03:21:19;9.20;99.90
6256;DHT22;3161;48.794;9.784;2023-03-21T03:24:05;9.20;99.90
6256;DHT22;3161;48.794;9.784;2023-03-21T03:26:38;9.20;99.90
6256;DHT22;3161;48.794;9.784;2023-03-21T03:29:12;9.20;99.90
6256;DHT22;3161;48.794;9.784;2023-03-21T03:31:46;9.20;99.90
6256;DHT22;3161;48.794;9.784;2023-03-21T03:34:12;9.20;99.90
6256;DHT22;3161;48.794;9.784;2023-03-21T03:36:44;9.30;99.90
6256;DHT22;3161;48.794;9.784;2023-03-21T03:39:13;9.20;99.90
6256;DHT22;3161;48.794;9.784;2023-03-21T03:41:49;9.20;99.90
6256;DHT22;3161;48.794;9.784;2023-03-21T03:44:12;9.20;99.90
6256;DHT22;3161;48.794;9.784;2023-03-21T03:49:22;9.20;99.90
6256;DHT22;3161;48.794;9.784;2023-03-21T03:52:16;9.20;99.90
6256;DHT22;3161;48.794;9.784;2023-03-21T03:54:45;9.20;99.90
6256;DHT22;3161;48.794;9.784;2023-03-21T03:57:15;9.20;99.90
6256;DHT22;3161;48.794;9.784;2023-03-21T03:59:44;9.20;99.90
6256;DHT22;3161;48.794;9.784;2023-03-21T04:02:13;9.20;99.90
6256;DHT22;3161;48.794;9.784;2023-03-21T04:04:40;9.20;99.90
6256;DHT22;3161;48.794;9.784;2023-03-21T04:07:08;9.20;99.90
6256;DHT22;3161;48.794;9.784;2023-03-21T04:09:36;9.20;99.90
6256;DHT22;3161;48.794;9.784;2023-03-21T04:12:04;9.20;99.90
6256;DHT22;3161;48.794;9.784;2023-03-21T04:14:31;9.20;99.90
6256;DHT22;3161;48.794;9.784;2023-03-21T04:16:59;9.20;99.90
6256;DHT22;3161;48.794;9.784;2023-03-21T04:19:26;9.20;99.90
6256;DHT22;3161;48.794;9.784;2023-03-21T04:21:54;9.20;99.90
6256;DHT22;3161;48.794;9.784;2023-03-21T04:24:21;9.20;99.90
6256;DHT22;3161;48.794;9.784;2023-03-21T04:26:49;9.20;99.90
6256;DHT22;3161;48.794;9.784;2023-03-21T04:29:19;9.20;99.90
6256;DHT22;3161;48.794;9.784;2023-03-21T04:31:46;9.20;99.90
6256;DHT22;3161;48.794;9.784;2023-03-21T04:34:15;9.20;99.90
6256;DHT22;3161;48.794;9.784;2023-03-21T04:36:42;9.20;99.90
6256;DHT22;3161;48.794;9.784;2023-03-21T04:39:13;9.20;99.90
6256;DHT22;3161;48.794;9.784;2023-03-21T04:41:43;9.20;99.90
6256;DHT22;3161;48.794;9.784;2023-03-21T04:44:12;9.10;99.90
6256;DHT22;3161;48.794;9.784;2023-03-21T04:46:40;9.10;99.90
6256;DHT22;3161;48.794;9.784;2023-03-21T04:49:08;9.10;99.90
6256;DHT22;3161;48.794;9.784;2023-03-21T04:51:36;9.10;99.90
6256;DHT22;3161;48.794;9.784;2023-03-21T04:54:04;9.10;99.90
6256;DHT22;3161;48.794;9.784;2023-03-21T04:56:32;9.20;99.90
6256;DHT22;3161;48.794;9.784;2023-03-21T04:59:07;9.20;99.90
6256;DHT22;3161;48.794;9.784;2023-03-21T05:01:34;9.20;99.90
6256;DHT22;3161;48.794;9.784;2023-03-21T05:04:03;9.10;99.90
6256;DHT22;3161;48.794;9.784;2023-03-21T05:06:31;9.10;99.90
6256;DHT22;3161;48.794;9.784;2023-03-21T05:08:59;9.10;99.90
6256;DHT22;3161;48.794;9.784;2023-03-21T05:11:29;9.10;99.90
6256;DHT22;3161;48.794;9.784;2023-03-21T05:13:59;9.10;99.90
6256;DHT22;3161;48.794;9.784;2023-03-21T05:16:26;9.10;99.90
6256;DHT22;3161;48.794;9.784;2023-03-21T05:18:57;9.20;99.90
6256;DHT22;3161;48.794;9.784;2023-03-21T05:21:26;9.10;99.90
6256;DHT22;3161;48.794;9.784;2023-03-21T05:23:55;9.20;99.90
6256;DHT22;3161;48.794;9.784;2023-03-21T05:26:24;9.20;99.90
6256;DHT22;3161;48.794;9.784;2023-03-21T05:28:51;9.20;99.90
6256;DHT22;3161;48.794;9.784;2023-03-21T05:31:19;9.20;99.90
6256;DHT22;3161;48.794;9.784;2023-03-21T05:33:47;9.20;99.90
6256;DHT22;3161;48.794;9.784;2023-03-21T05:36:15;9.20;99.90
6256;DHT22;3161;48.794;9.784;2023-03-21T05:38:42;9.20;99.90
6256;DHT22;3161;48.794;9.784;2023-03-21T05:41:12;9.20;99.90
6256;DHT22;3161;48.794;9.784;2023-03-21T05:43:40;9.20;99.90
6256;DHT22;3161;48.794;9.784;2023-03-21T05:46:09;9.20;99.90
6256;DHT22;3161;48.794;9.784;2023-03-21T05:48:37;9.20;99.90
6256;DHT22;3161;48.794;9.784;2023-03-21T05:51:05;9.10;99.90
6256;DHT22;3161;48.794;9.784;2023-03-21T05:53:33;9.10;99.90
6256;DHT22;3161;48.794;9.784;2023-03-21T05:56:00;9.10;99.90
6256;DHT22;3161;48.794;9.784;2023-03-21T05:58:28;9.20;99.90
6256;DHT22;3161;48.794;9.784;2023-03-21T06:00:56;9.20;99.90
6256;DHT22;3161;48.794;9.784;2023-03-21T06:03:23;9.20;99.90
6256;DHT22;3161;48.794;9.784;2023-03-21T06:05:51;9.20;99.90
6256;DHT22;3161;48.794;9.784;2023-03-21T06:08:19;9.30;99.90
6256;DHT22;3161;48.794;9.784;2023-03-21T06:10:46;9.30;99.90
6256;DHT22;3161;48.794;9.784;2023-03-21T06:13:13;9.40;99.90
6256;DHT22;3161;48.794;9.784;2023-03-21T06:15:41;9.40;99.90
6256;DHT22;3161;48.794;9.784;2023-03-21T06:18:09;9.40;99.90
6256;DHT22;3161;48.794;9.784;2023-03-21T06:20:36;9.50;99.90
6256;DHT22;3161;48.794;9.784;2023-03-21T06:23:04;9.50;99.90
6256;DHT22;3161;48.794;9.784;2023-03-21T06:25:31;9.50;99.90
6256;DHT22;3161;48.794;9.784;2023-03-21T06:27:59;9.60;99.90
6256;DHT22;3161;48.794;9.784;2023-03-21T06:30:27;9.60;99.90
6256;DHT22;3161;48.794;9.784;2023-03-21T06:32:54;9.70;99.90
6256;DHT22;3161;48.794;9.784;2023-03-21T06:35:22;9.70;99.90
6256;DHT22;3161;48.794;9.784;2023-03-21T06:37:49;9.70;99.90
6256;DHT22;3161;48.794;9.784;2023-03-21T06:40:17;9.80;99.90
6256;DHT22;3161;48.794;9.784;2023-03-21T06:42:44;9.80;99.90
6256;DHT22;3161;48.794;9.784;2023-03-21T06:45:12;9.80;99.90
6256;DHT22;3161;48.794;9.784;2023-03-21T06:47:39;9.80;99.90
6256;DHT22;3161;48.794;9.784;2023-03-21T06:50:08;9.90;99.90
6256;DHT22;3161;48.794;9.784;2023-03-21T06:52:36;9.90;99.90
6256;DHT22;3161;48.794;9.784;2023-03-21T06:55:04;9.90;99.90
6256;DHT22;3161;48.794;9.784;2023-03-21T06:57:32;9.90;99.90
6256;DHT22;3161;48.794;9.784;2023-03-21T06:59:59;9.90;99.90
6256;DHT22;3161;48.794;9.784;2023-03-21T07:02:28;10.00;99.90
6256;DHT22;3161;48.794;9.784;2023-03-21T07:04:56;10.00;99.90
6256;DHT22;3161;48.794;9.784;2023-03-21T07:07:24;10.10;99.90
6256;DHT22;3161;48.794;9.784;2023-03-21T07:09:54;10.10;99.90
6256;DHT22;3161;48.794;9.784;2023-03-21T07:12:22;10.20;99.90
6256;DHT22;3161;48.794;9.784;2023-03-21T07:14:50;10.30;99.90
6256;DHT22;3161;48.794;9.784;2023-03-21T07:17:17;10.40;99.90
6256;DHT22;3161;48.794;9.784;2023-03-21T07:19:45;10.40;99.90
6256;DHT22;3161;48.794;9.784;2023-03-21T07:22:12;10.50;99.90
6256;DHT22;3161;48.794;9.784;2023-03-21T07:24:40;10.60;99.90
6256;DHT22;3161;48.794;9.784;2023-03-21T07:27:07;10.70;99.90
6256;DHT22;3161;48.794;9.784;2023-03-21T07:29:35;10.70;99.90
6256;DHT22;3161;48.794;9.784;2023-03-21T07:32:03;10.80;99.90
6256;DHT22;3161;48.794;9.784;2023-03-21T07:34:31;10.90;99.90
6256;DHT22;3161;48.794;9.784;2023-03-21T07:36:59;10.90;99.90
6256;DHT22;3161;48.794;9.784;2023-03-21T07:39:27;11.00;99.90
6256;DHT22;3161;48.794;9.784;2023-03-21T07:41:55;11.10;99.90
6256;DHT22;3161;48.794;9.784;2023-03-21T07:44:23;11.20;99.90
6256;DHT22;3161;48.794;9.784;2023-03-21T07:46:51;11.30;99.90
6256;DHT22;3161;48.794;9.784;2023-03-21T07:49:18;11.40;99.90
6256;DHT22;3161;48.794;9.784;2023-03-21T07:51:46;11.50;99.90
6256;DHT22;3161;48.794;9.784;2023-03-21T07:54:13;11.50;99.90
6256;DHT22;3161;48.794;9.784;2023-03-21T07:56:43;11.60;99.90
6256;DHT22;3161;48.794;9.784;2023-03-21T07:59:10;11.70;99.90
6256;DHT22;3161;48.794;9.784;2023-03-21T08:01:38;11.80;99.90
6256;DHT22;3161;48.794;9.784;2023-03-21T08:04:05;11.90;99.90
6256;DHT22;3161;48.794;9.784;2023-03-21T08:06:33;11.90;99.90
6256;DHT22;3161;48.794;9.784;2023-03-21T08:09:01;12.00;99.90
6256;DHT22;3161;48.794;9.784;2023-03-21T08:11:29;12.10;99.90
6256;DHT22;3161;48.794;9.784;2023-03-21T08:13:58;12.20;99.90
6256;DHT22;3161;48.794;9.784;2023-03-21T08:16:26;12.40;99.90
6256;DHT22;3161;48.794;9.784;2023-03-21T08:18:53;12.50;99.90
6256;DHT22;3161;48.794;9.784;2023-03-21T08:21:21;12.60;99.90
6256;DHT22;3161;48.794;9.784;2023-03-21T08:23:48;12.70;99.90
6256;DHT22;3161;48.794;9.784;2023-03-21T08:26:16;12.80;99.90
6256;DHT22;3161;48.794;9.784;2023-03-21T08:28:45;12.90;99.90
6256;DHT22;3161;48.794;9.784;2023-03-21T08:31:13;13.00;99.90
6256;DHT22;3161;48.794;9.784;2023-03-21T08:33:41;13.00;99.90
6256;DHT22;3161;48.794;9.784;2023-03-21T08:36:09;13.00;99.90
6256;DHT22;3161;48.794;9.784;2023-03-21T08:38:36;13.00;99.90
6256;DHT22;3161;48.794;9.784;2023-03-21T08:41:05;13.10;99.90
6256;DHT22;3161;48.794;9.784;2023-03-21T08:43:33;13.30;99.90
6256;DHT22;3161;48.794;9.784;2023-03-21T08:46:01;13.40;99.90
6256;DHT22;3161;48.794;9.784;2023-03-21T08:48:29;13.70;99.90
6256;DHT22;3161;48.794;9.784;2023-03-21T08:50:59;14.00;99.90
6256;DHT22;3161;48.794;9.784;2023-03-21T08:53:26;14.20;99.90
6256;DHT22;3161;48.794;9.784;2023-03-21T08:55:54;14.70;99.90
6256;DHT22;3161;48.794;9.784;2023-03-21T08:58:22;15.50;99.90
6256;DHT22;3161;48.794;9.784;2023-03-21T09:00:50;16.40;99.90
6256;DHT22;3161;48.794;9.784;2023-03-21T09:03:18;17.30;99.90
6256;DHT22;3161;48.794;9.784;2023-03-21T09:05:46;17.90;99.90
6256;DHT22;3161;48.794;9.784;2023-03-21T09:08:14;18.60;99.90
6256;DHT22;3161;48.794;9.784;2023-03-21T09:10:41;19.00;99.90
6256;DHT22;3161;48.794;9.784;2023-03-21T09:13:08;19.30;99.80
6256;DHT22;3161;48.794;9.784;2023-03-21T09:15:36;19.70;99.70
6256;DHT22;3161;48.794;9.784;2023-03-21T09:18:04;20.00;98.70
6256;DHT22;3161;48.794;9.784;2023-03-21T09:20:33;20.40;98.10
6256;DHT22;3161;48.794;9.784;2023-03-21T09:23:02;20.50;96.10
6256;DHT22;3161;48.794;9.784;2023-03-21T09:25:30;20.70;95.90
6256;DHT22;3161;48.794;9.784;2023-03-21T09:27:59;20.80;95.90
6256;DHT22;3161;48.794;9.784;2023-03-21T09:30:27;21.00;92.60
6256;DHT22;3161;48.794;9.784;2023-03-21T09:32:55;20.90;92.50
6256;DHT22;3161;48.794;9.784;2023-03-21T09:35:23;21.00;92.60
6256;DHT22;3161;48.794;9.784;2023-03-21T09:37:53;21.10;92.90
6256;DHT22;3161;48.794;9.784;2023-03-21T09:43:09;21.30;90.20
6256;DHT22;3161;48.794;9.784;2023-03-21T09:45:39;21.20;90.60
6256;DHT22;3161;48.794;9.784;2023-03-21T09:48:14;21.10;92.70
6256;DHT22;3161;48.794;9.784;2023-03-21T09:50:40;21.00;90.40
6256;DHT22;3161;48.794;9.784;2023-03-21T09:53:29;20.80;91.20
6256;DHT22;3161;48.794;9.784;2023-03-21T09:55:56;20.60;89.10
6256;DHT22;3161;48.794;9.784;2023-03-21T09:58:34;20.30;90.00
6256;DHT22;3161;48.794;9.784;2023-03-21T10:01:16;20.00;90.10
6256;DHT22;3161;48.794;9.784;2023-03-21T10:03:49;19.70;90.90
6256;DHT22;3161;48.794;9.784;2023-03-21T10:06:19;19.70;90.90
6256;DHT22;3161;48.794;9.784;2023-03-21T10:08:48;19.90;91.50
6256;DHT22;3161;48.794;9.784;2023-03-21T10:11:25;20.00;91.00
6256;DHT22;3161;48.794;9.784;2023-03-21T10:14:04;20.30;91.20
6256;DHT22;3161;48.794;9.784;2023-03-21T10:16:55;20.40;91.50
6256;DHT22;3161;48.794;9.784;2023-03-21T10:19:22;20.60;86.00
6256;DHT22;3161;48.794;9.784;2023-03-21T10:21:51;20.70;88.70
6256;DHT22;3161;48.794;9.784;2023-03-21T10:24:21;20.80;87.70
6256;DHT22;3161;48.794;9.784;2023-03-21T10:26:50;21.00;87.10
6256;DHT22;3161;48.794;9.784;2023-03-21T10:29:21;21.10;89.60
6256;DHT22;3161;48.794;9.784;2023-03-21T10:31:51;21.10;88.40
6256;DHT22;3161;48.794;9.784;2023-03-21T10:36:53;21.20;87.40
6256;DHT22;3161;48.794;9.784;2023-03-21T10:39:37;21.30;89.80
6256;DHT22;3161;48.794;9.784;2023-03-21T10:42:05;21.30;84.70
6256;DHT22;3161;48.794;9.784;2023-03-21T10:44:34;21.30;82.60
6256;DHT22;3161;48.794;9.784;2023-03-21T10:47:05;21.40;81.60
6256;DHT22;3161;48.794;9.784;2023-03-21T10:49:35;21.30;84.20
6256;DHT22;3161;48.794;9.784;2023-03-21T10:52:08;21.20;84.00
6256;DHT22;3161;48.794;9.784;2023-03-21T10:54:44;21.10;81.20
6256;DHT22;3161;48.794;9.784;2023-03-21T10:57:15;21.00;82.40
6256;DHT22;3161;48.794;9.784;2023-03-21T10:59:54;20.90;83.60
6256;DHT22;3161;48.794;9.784;2023-03-21T11:02:33;20.80;84.60
6256;DHT22;3161;48.794;9.784;2023-03-21T11:04:56;20.70;81.10
6256;DHT22;3161;48.794;9.784;2023-03-21T11:07:27;20.70;79.20
6256;DHT22;3161;48.794;9.784;2023-03-21T11:10:01;20.60;84.50
6256;DHT22;3161;48.794;9.784;2023-03-21T11:12:34;20.60;86.20
6256;DHT22;3161;48.794;9.784;2023-03-21T11:17:52;20.70;80.20
6256;DHT22;3161;48.794;9.784;2023-03-21T11:20:20;20.90;83.30
6256;DHT22;3161;48.794;9.784;2023-03-21T11:22:48;21.10;82.70
6256;DHT22;3161;48.794;9.784;2023-03-21T11:25:35;21.30;82.00
6256;DHT22;3161;48.794;9.784;2023-03-21T11:28:21;21.60;79.30
6256;DHT22;3161;48.794;9.784;2023-03-21T11:30:34;21.80;77.90
6256;DHT22;3161;48.794;9.784;2023-03-21T11:33:02;22.00;81.40
6256;DHT22;3161;48.794;9.784;2023-03-21T11:35:38;22.00;77.40
6256;DHT22;3161;48.794;9.784;2023-03-21T11:38:03;22.10;75.60
6256;DHT22;3161;48.794;9.784;2023-03-21T11:40:33;22.30;76.70
6256;DHT22;3161;48.794;9.784;2023-03-21T11:43:05;22.60;76.80
6256;DHT22;3161;48.794;9.784;2023-03-21T11:45:33;22.80;75.10
6256;DHT22;3161;48.794;9.784;2023-03-21T11:48:10;23.00;74.30
6256;DHT22;3161;48.794;9.784;2023-03-21T11:50:37;23.00;73.70
6256;DHT22;3161;48.794;9.784;2023-03-21T11:53:21;23.00;68.30
6256;DHT22;3161;48.794;9.784;2023-03-21T12:04:12;22.80;72.10
6256;DHT22;3161;48.794;9.784;2023-03-21T12:09:39;22.70;67.70
6256;DHT22;3161;48.794;9.784;2023-03-21T12:15:02;22.50;68.40
6256;DHT22;3161;48.794;9.784;2023-03-21T12:20:07;22.30;69.60
6256;DHT22;3161;48.794;9.784;2023-03-21T12:25:44;22.10;68.50
6256;DHT22;3161;48.794;9.784;2023-03-21T12:31:08;22.20;70.00
6256;DHT22;3161;48.794;9.784;2023-03-21T12:33:52;22.20;68.60
6256;DHT22;3161;48.794;9.784;2023-03-21T12:41:52;22.10;66.60
6256;DHT22;3161;48.794;9.784;2023-03-21T12:44:20;22.00;67.20
6256;DHT22;3161;48.794;9.784;2023-03-21T12:49:37;21.80;65.40
6256;DHT22;3161;48.794;9.784;2023-03-21T12:52:12;21.70;66.30
6256;DHT22;3161;48.794;9.784;2023-03-21T12:54:43;21.50;67.70
6256;DHT22;3161;48.794;9.784;2023-03-21T12:57:24;21.30;64.90
6256;DHT22;3161;48.794;9.784;2023-03-21T13:00:09;21.00;64.50
6256;DHT22;3161;48.794;9.784;2023-03-21T13:02:42;20.70;66.50
6256;DHT22;3161;48.794;9.784;2023-03-21T13:05:17;20.50;68.40
6256;DHT22;3161;48.794;9.784;2023-03-21T13:07:49;20.30;67.20
6256;DHT22;3161;48.794;9.784;2023-03-21T13:10:19;20.20;68.90
6256;DHT22;3161;48.794;9.784;2023-03-21T13:21:11;19.60;68.70
6256;DHT22;3161;48.794;9.784;2023-03-21T13:23:37;19.50;69.20
6256;DHT22;3161;48.794;9.784;2023-03-21T13:26:09;19.30;68.00
6256;DHT22;3161;48.794;9.784;2023-03-21T13:28:39;19.30;70.80
6256;DHT22;3161;48.794;9.784;2023-03-21T13:31:24;19.20;72.20
6256;DHT22;3161;48.794;9.784;2023-03-21T13:33:57;19.20;72.10
6256;DHT22;3161;48.794;9.784;2023-03-21T13:36:27;19.20;70.40
6256;DHT22;3161;48.794;9.784;2023-03-21T13:39:01;19.20;70.10
6256;DHT22;3161;48.794;9.784;2023-03-21T13:41:36;19.20;71.90
6256;DHT22;3161;48.794;9.784;2023-03-21T13:49:32;19.10;69.50
6256;DHT22;3161;48.794;9.784;2023-03-21T13:52:20;19.10;66.70
6256;DHT22;3161;48.794;9.784;2023-03-21T13:57:17;19.00;70.80
6256;DHT22;3161;48.794;9.784;2023-03-21T13:59:43;19.10;71.10
6256;DHT22;3161;48.794;9.784;2023-03-21T14:02:28;19.10;70.30
6256;DHT22;3161;48.794;9.784;2023-03-21T14:05:02;19.10;68.10
6256;DHT22;3161;48.794;9.784;2023-03-21T14:07:32;18.90;70.00
6256;DHT22;3161;48.794;9.784;2023-03-21T14:10:03;18.80;69.50
6256;DHT22;3161;48.794;9.784;2023-03-21T14:12:38;18.80;70.20
6256;DHT22;3161;48.794;9.784;2023-03-21T14:15:14;18.70;70.20
6256;DHT22;3161;48.794;9.784;2023-03-21T14:17:54;18.70;68.60
6256;DHT22;3161;48.794;9.784;2023-03-21T14:20:28;18.60;71.20
6256;DHT22;3161;48.794;9.784;2023-03-21T14:22:52;18.60;73.70
6256;DHT22;3161;48.794;9.784;2023-03-21T14:25:22;18.60;72.90
6256;DHT22;3161;48.794;9.784;2023-03-21T14:27:56;18.60;74.90
6256;DHT22;3161;48.794;9.784;2023-03-21T14:30:27;18.50;70.30
6256;DHT22;3161;48.794;9.784;2023-03-21T14:33:16;18.50;71.70
6256;DHT22;3161;48.794;9.784;2023-03-21T14:35:46;18.50;73.60
6256;DHT22;3161;48.794;9.784;2023-03-21T14:38:22;18.50;73.80
6256;DHT22;3161;48.794;9.784;2023-03-21T14:40:53;18.50;74.30
6256;DHT22;3161;48.794;9.784;2023-03-21T14:43:22;18.50;76.40
6256;DHT22;3161;48.794;9.784;2023-03-21T14:45:53;18.50;76.20
6256;DHT22;3161;48.794;9.784;2023-03-21T14:48:29;18.50;74.90
6256;DHT22;3161;48.794;9.784;2023-03-21T14:51:02;18.50;73.50
6256;DHT22;3161;48.794;9.784;2023-03-21T14:53:35;18.40;73.60
6256;DHT22;3161;48.794;9.784;2023-03-21T14:56:16;18.40;74.60
6256;DHT22;3161;48.794;9.784;2023-03-21T14:58:43;18.40;73.80
6256;DHT22;3161;48.794;9.784;2023-03-21T15:01:16;18.30;74.20
6256;DHT22;3161;48.794;9.784;2023-03-21T15:03:45;18.40;74.70
6256;DHT22;3161;48.794;9.784;2023-03-21T15:06:14;18.40;73.30
6256;DHT22;3161;48.794;9.784;2023-03-21T15:09:00;18.40;73.50
6256;DHT22;3161;48.794;9.784;2023-03-21T15:11:37;18.50;74.50
6256;DHT22;3161;48.794;9.784;2023-03-21T15:14:07;18.50;74.40
6256;DHT22;3161;48.794;9.784;2023-03-21T15:16:36;18.50;75.10
6256;DHT22;3161;48.794;9.784;2023-03-21T15:19:05;18.50;75.10
6256;DHT22;3161;48.794;9.784;2023-03-21T15:21:38;18.50;73.20
6256;DHT22;3161;48.794;9.784;2023-03-21T15:24:14;18.40;71.70
6256;DHT22;3161;48.794;9.784;2023-03-21T15:26:47;18.30;71.10
6256;DHT22;3161;48.794;9.784;2023-03-21T15:29:16;18.30;72.40
6256;DHT22;3161;48.794;9.784;2023-03-21T15:31:47;18.20;73.90
6256;DHT22;3161;48.794;9.784;2023-03-21T15:34:23;18.20;75.30
6256;DHT22;3161;48.794;9.784;2023-03-21T15:37:07;18.10;77.30
6256;DHT22;3161;48.794;9.784;2023-03-21T15:39:35;18.10;74.60
6256;DHT22;3161;48.794;9.784;2023-03-21T15:42:26;18.10;76.70
6256;DHT22;3161;48.794;9.784;2023-03-21T15:44:56;18.10;76.60
6256;DHT22;3161;48.794;9.784;2023-03-21T15:47:47;18.10;76.40
6256;DHT22;3161;48.794;9.784;2023-03-21T15:50:23;18.10;77.10
6256;DHT22;3161;48.794;9.784;2023-03-21T15:52:51;18.10;76.40
6256;DHT22;3161;48.794;9.784;2023-03-21T15:55:26;18.10;76.60
6256;DHT22;3161;48.794;9.784;2023-03-21T15:57:58;18.10;75.40
6256;DHT22;3161;48.794;9.784;2023-03-21T16:00:33;18.10;78.00
6256;DHT22;3161;48.794;9.784;2023-03-21T16:02:58;18.10;78.20
6256;DHT22;3161;48.794;9.784;2023-03-21T16:05:31;18.00;76.00
6256;DHT22;3161;48.794;9.784;2023-03-21T16:08:25;18.00;79.30
6256;DHT22;3161;48.794;9.784;2023-03-21T16:10:51;18.00;78.80
6256;DHT22;3161;48.794;9.784;2023-03-21T16:13:18;17.90;77.40
6256;DHT22;3161;48.794;9.784;2023-03-21T16:15:46;17.90;77.60
6256;DHT22;3161;48.794;9.784;2023-03-21T16:18:15;17.90;80.70
6256;DHT22;3161;48.794;9.784;2023-03-21T16:20:44;17.90;80.60
6256;DHT22;3161;48.794;9.784;2023-03-21T16:23:13;17.90;82.80
6256;DHT22;3161;48.794;9.784;2023-03-21T16:25:43;17.80;80.20
6256;DHT22;3161;48.794;9.784;2023-03-21T16:28:15;17.80;78.30
6256;DHT22;3161;48.794;9.784;2023-03-21T16:30:43;17.70;79.60
6256;DHT22;3161;48.794;9.784;2023-03-21T16:33:11;17.70;81.80
6256;DHT22;3161;48.794;9.784;2023-03-21T16:35:39;17.60;79.80
6256;DHT22;3161;48.794;9.784;2023-03-21T16:38:09;17.50;79.70
6256;DHT22;3161;48.794;9.784;2023-03-21T16:40:39;17.50;84.70
6256;DHT22;3161;48.794;9.784;2023-03-21T16:43:08;17.40;82.60
6256;DHT22;3161;48.794;9.784;2023-03-21T16:45:36;17.40;84.40
6256;DHT22;3161;48.794;9.784;2023-03-21T16:48:04;17.30;84.90
6256;DHT22;3161;48.794;9.784;2023-03-21T16:50:36;17.30;83.10
6256;DHT22;3161;48.794;9.784;2023-03-21T16:53:04;17.20;84.90
6256;DHT22;3161;48.794;9.784;2023-03-21T16:55:32;17.20;85.30
6256;DHT22;3161;48.794;9.784;2023-03-21T16:58:00;17.10;86.80
6256;DHT22;3161;48.794;9.784;2023-03-21T17:00:29;17.00;88.30
6256;DHT22;3161;48.794;9.784;2023-03-21T17:03:00;16.90;88.10
6256;DHT22;3161;48.794;9.784;2023-03-21T17:05:29;16.80;88.10
6256;DHT22;3161;48.794;9.784;2023-03-21T17:07:57;16.70;91.10
6256;DHT22;3161;48.794;9.784;2023-03-21T17:10:28;16.60;91.00
6256;DHT22;3161;48.794;9.784;2023-03-21T17:12:56;16.60;91.40
6256;DHT22;3161;48.794;9.784;2023-03-21T17:15:24;16.50;91.90
6256;DHT22;3161;48.794;9.784;2023-03-21T17:17:52;16.40;91.80
6256;DHT22;3161;48.794;9.784;2023-03-21T17:20:23;16.30;92.40
6256;DHT22;3161;48.794;9.784;2023-03-21T17:22:51;16.20;92.00
6256;DHT22;3161;48.794;9.784;2023-03-21T17:25:19;16.10;92.50
6256;DHT22;3161;48.794;9.784;2023-03-21T17:27:47;16.00;91.90
6256;DHT22;3161;48.794;9.784;2023-03-21T17:30:22;15.90;93.00
6256;DHT22;3161;48.794;9.784;2023-03-21T17:32:48;15.80;93.20
6256;DHT22;3161;48.794;9.784;2023-03-21T17:35:16;15.80;93.80
6256;DHT22;3161;48.794;9.784;2023-03-21T17:37:44;15.70;94.00
6256;DHT22;3161;48.794;9.784;2023-03-21T17:40:29;15.60;94.60
6256;DHT22;3161;48.794;9.784;2023-03-21T17:42:58;15.60;95.20
6256;DHT22;3161;48.794;9.784;2023-03-21T17:45:27;15.50;95.70
6256;DHT22;3161;48.794;9.784;2023-03-21T17:47:55;15.40;95.80
6256;DHT22;3161;48.794;9.784;2023-03-21T17:50:25;15.30;95.80